createdAt,value
2019-05-01T00:01:26.029Z,81.70
2019-05-01T00:03:59.165Z,89.60
2019-05-01T00:06:41.264Z,86.75
2019-05-01T00:09:12.886Z,85.80
2019-05-01T00:11:44.380Z,95.90
2019-05-01T00:14:15.935Z,92.88
2019-05-01T00:16:47.452Z,111.95
2019-05-01T00:19:18.557Z,106.25
2019-05-01T00:21:50.105Z,97.17
2019-05-01T00:24:21.244Z,101.30
2019-05-01T00:26:52.602Z,114.30
2019-05-01T00:29:24.052Z,97.85
2019-05-01T00:31:55.744Z,93.62
2019-05-01T00:34:27.170Z,88.10
2019-05-01T00:36:58.427Z,101.33
2019-05-01T00:39:29.771Z,92.15
2019-05-01T00:42:00.988Z,97.60
2019-05-01T00:44:32.459Z,91.53
2019-05-01T00:47:03.829Z,80.00
2019-05-01T00:49:35.402Z,91.25
2019-05-01T00:52:06.865Z,96.15
2019-05-01T00:54:39.736Z,96.20
2019-05-01T00:57:15.787Z,95.38
2019-05-01T00:59:54.829Z,98.70
2019-05-01T01:02:27.777Z,97.97
2019-05-01T01:04:59.244Z,111.65
2019-05-01T01:07:30.957Z,85.28
2019-05-01T01:10:02.581Z,88.72
2019-05-01T01:12:34.654Z,91.40
2019-05-01T01:15:06.315Z,95.15
2019-05-01T01:17:38.591Z,102.80
2019-05-01T01:20:10.354Z,110.40
2019-05-01T01:22:41.493Z,101.07
2019-05-01T01:25:13.058Z,115.00
2019-05-01T01:27:44.515Z,90.83
2019-05-01T01:30:16.380Z,94.75
2019-05-01T01:32:47.519Z,107.83
2019-05-01T01:35:18.869Z,107.70
2019-05-01T01:37:50.141Z,108.47
2019-05-01T01:40:21.678Z,94.80
2019-05-01T01:42:54.468Z,112.08
2019-05-01T01:45:27.520Z,98.70
2019-05-01T01:48:12.425Z,111.75
2019-05-01T01:50:44.705Z,95.62
2019-05-01T01:53:17.481Z,101.30
2019-05-01T01:55:49.048Z,82.78
2019-05-01T01:58:20.558Z,100.58
2019-05-01T02:01:08.994Z,103.30
2019-05-01T02:03:44.119Z,98.55
2019-05-01T02:06:15.644Z,96.78
2019-05-01T02:08:56.254Z,95.77
2019-05-01T02:11:19.885Z,105.17
2019-05-01T02:13:55.960Z,106.20
2019-05-01T02:16:27.864Z,88.33
2019-05-01T02:18:59.066Z,102.50
2019-05-01T02:21:30.512Z,104.25
2019-05-01T02:24:01.671Z,82.47
2019-05-01T02:26:40.753Z,77.87
2019-05-01T02:29:17.271Z,92.53
2019-05-01T02:31:51.683Z,95.00
2019-05-01T02:34:22.941Z,107.37
2019-05-01T02:36:54.175Z,96.17
2019-05-01T02:39:25.751Z,98.85
2019-05-01T02:41:56.911Z,85.75
2019-05-01T02:44:31.315Z,112.70
2019-05-01T02:47:05.059Z,99.05
2019-05-01T02:49:39.606Z,92.90
2019-05-01T02:54:42.803Z,257.05
2019-05-01T02:57:18.922Z,93.72
2019-05-01T02:59:52.105Z,86.95
2019-05-01T03:02:24.239Z,106.55
2019-05-01T03:04:55.436Z,104.75
2019-05-01T03:07:27.401Z,89.77
2019-05-01T03:09:58.553Z,124.97
2019-05-01T03:12:30.211Z,84.13
2019-05-01T03:15:02.612Z,104.50
2019-05-01T03:17:37.526Z,99.70
2019-05-01T03:20:25.880Z,89.40
2019-05-01T03:23:14.653Z,82.80
2019-05-01T03:25:46.410Z,95.50
2019-05-01T03:28:17.954Z,95.75
2019-05-01T03:30:48.992Z,113.17
2019-05-01T03:33:20.456Z,80.92
2019-05-01T03:35:51.912Z,96.47
2019-05-01T03:38:23.090Z,76.33
2019-05-01T03:40:54.615Z,90.65
2019-05-01T03:43:26.061Z,94.52
2019-05-01T03:45:57.429Z,86.10
2019-05-01T03:48:28.988Z,92.20
2019-05-01T03:51:00.229Z,77.20
2019-05-01T03:53:31.980Z,75.32
2019-05-01T03:56:03.645Z,70.85
2019-05-01T03:58:34.708Z,77.12
2019-05-01T04:01:10.829Z,68.15
2019-05-01T04:03:44.077Z,66.87
2019-05-01T04:06:15.298Z,75.25
2019-05-01T04:08:46.312Z,69.80
2019-05-01T04:11:18.077Z,66.77
2019-05-01T04:13:49.667Z,74.47
2019-05-01T04:16:21.644Z,69.20
2019-05-01T04:18:52.986Z,64.58
2019-05-01T04:21:26.387Z,69.20
2019-05-01T04:23:57.531Z,79.45
2019-05-01T04:26:28.679Z,67.22
2019-05-01T04:29:16.821Z,59.05
2019-05-01T04:31:49.817Z,70.20
2019-05-01T04:34:22.619Z,66.85
2019-05-01T04:37:07.893Z,69.67
2019-05-01T04:39:39.956Z,67.92
2019-05-01T04:42:11.603Z,69.32
2019-05-01T04:44:42.914Z,78.12
2019-05-01T04:47:14.629Z,68.40
2019-05-01T04:49:45.775Z,104.67
2019-05-01T04:52:16.997Z,203.15
2019-05-01T04:54:48.476Z,277.07
2019-05-01T04:57:20.002Z,225.22
2019-05-01T04:59:51.514Z,177.20
2019-05-01T05:02:27.443Z,116.37
2019-05-01T05:04:58.591Z,90.05
2019-05-01T05:07:29.951Z,105.60
2019-05-01T05:10:01.198Z,99.00
2019-05-01T05:12:34.168Z,87.30
2019-05-01T05:15:14.438Z,103.07
2019-05-01T05:17:46.087Z,86.15
2019-05-01T05:20:17.626Z,81.90
2019-05-01T05:22:49.115Z,109.57
2019-05-01T05:25:20.155Z,75.37
2019-05-01T05:27:52.017Z,72.97
2019-05-01T05:30:23.474Z,78.22
2019-05-01T05:32:55.131Z,75.95
2019-05-01T05:35:26.275Z,80.10
2019-05-01T05:37:59.163Z,81.00
2019-05-01T05:40:32.252Z,101.18
2019-05-01T05:43:04.396Z,86.28
2019-05-01T05:45:35.786Z,91.28
2019-05-01T05:48:06.923Z,84.20
2019-05-01T05:50:42.575Z,79.40
2019-05-01T05:53:16.941Z,88.75
2019-05-01T05:55:53.444Z,72.80
2019-05-01T05:58:26.981Z,61.28
2019-05-01T06:01:08.490Z,70.83
2019-05-01T06:08:15.082Z,53.55
2019-05-01T06:10:53.638Z,45.08
2019-05-01T06:13:42.671Z,50.80
2019-05-01T06:16:25.177Z,64.35
2019-05-01T06:19:00.774Z,58.70
2019-05-01T06:21:34.788Z,54.85
2019-05-01T06:24:08.043Z,48.87
2019-05-01T06:26:39.640Z,56.98
2019-05-01T06:29:11.762Z,54.83
2019-05-01T06:31:42.920Z,59.73
2019-05-01T06:34:14.372Z,44.42
2019-05-01T06:36:49.742Z,53.02
2019-05-01T06:39:18.958Z,45.88
2019-05-01T06:41:51.199Z,46.18
2019-05-01T06:44:24.340Z,40.95
2019-05-01T06:47:05.106Z,40.35
2019-05-01T06:49:44.909Z,41.70
2019-05-01T06:52:17.779Z,41.88
2019-05-01T06:54:52.135Z,42.88
2019-05-01T06:57:22.108Z,37.13
2019-05-01T06:59:53.292Z,34.40
2019-05-01T07:02:24.733Z,42.00
2019-05-01T07:04:56.299Z,35.60
2019-05-01T07:07:27.744Z,48.28
2019-05-01T07:09:59.207Z,38.90
2019-05-01T07:12:30.863Z,38.63
2019-05-01T07:15:05.392Z,38.73
2019-05-01T07:17:36.536Z,36.45
2019-05-01T07:20:16.838Z,38.45
2019-05-01T07:22:45.990Z,44.98
2019-05-01T07:25:18.685Z,33.58
2019-05-01T07:27:53.944Z,35.92
2019-05-01T07:30:33.814Z,32.93
2019-05-01T07:33:05.422Z,33.10
2019-05-01T07:35:37.977Z,41.15
2019-05-01T07:38:09.244Z,43.28
2019-05-01T07:40:40.431Z,33.78
2019-05-01T07:43:23.961Z,39.90
2019-05-01T07:46:13.738Z,35.43
2019-05-01T07:48:45.069Z,33.70
2019-05-01T07:51:16.708Z,35.78
2019-05-01T07:53:48.169Z,37.55
2019-05-01T07:56:22.979Z,32.00
2019-05-01T07:58:53.491Z,35.40
2019-05-01T08:01:26.489Z,37.23
2019-05-01T08:03:58.014Z,40.48
2019-05-01T08:06:29.436Z,38.23
2019-05-01T08:09:00.691Z,31.82
2019-05-01T08:11:33.625Z,32.28
2019-05-01T08:14:07.486Z,41.77
2019-05-01T08:16:42.555Z,45.23
2019-05-01T08:19:12.451Z,60.17
2019-05-01T08:21:57.011Z,35.65
2019-05-01T08:24:28.663Z,31.25
2019-05-01T08:26:59.633Z,33.33
2019-05-01T08:29:48.869Z,37.50
2019-05-01T08:32:28.008Z,38.98
2019-05-01T08:35:04.172Z,32.67
2019-05-01T08:37:35.570Z,44.15
2019-05-01T08:40:07.536Z,29.77
2019-05-01T08:42:42.541Z,35.90
2019-05-01T08:45:16.767Z,33.48
2019-05-01T08:48:02.675Z,32.60
2019-05-01T08:50:34.599Z,34.23
2019-05-01T08:53:05.638Z,36.23
2019-05-01T08:55:39.840Z,27.80
2019-05-01T08:58:13.876Z,39.20
2019-05-01T09:00:43.376Z,35.25
2019-05-01T09:03:18.605Z,36.05
2019-05-01T09:05:47.611Z,38.58
2019-05-01T09:08:18.961Z,32.85
2019-05-01T09:10:54.851Z,45.17
2019-05-01T09:13:24.888Z,27.65
2019-05-01T09:15:56.271Z,32.95
2019-05-01T09:18:27.407Z,30.60
2019-05-01T09:20:58.990Z,44.03
2019-05-01T09:23:30.553Z,45.60
2019-05-01T09:26:14.567Z,31.87
2019-05-01T09:29:00.085Z,31.42
2019-05-01T09:31:35.380Z,30.72
2019-05-01T09:36:36.683Z,31.73
2019-05-01T09:39:09.801Z,34.92
2019-05-01T09:41:43.221Z,31.82
2019-05-01T09:44:14.171Z,40.25
2019-05-01T09:46:45.590Z,45.20
2019-05-01T09:49:18.371Z,38.65
2019-05-01T09:52:00.582Z,31.25
2019-05-01T09:54:36.140Z,38.08
2019-05-01T09:57:07.181Z,32.13
2019-05-01T09:59:38.740Z,38.33
2019-05-01T10:02:09.957Z,35.95
2019-05-01T10:04:41.075Z,36.58
2019-05-01T10:07:12.090Z,34.75
2019-05-01T10:09:47.202Z,31.70
2019-05-01T10:12:16.922Z,25.20
2019-05-01T10:14:48.222Z,34.55
2019-05-01T10:17:20.650Z,24.52
2019-05-01T10:19:52.206Z,21.10
2019-05-01T10:22:23.356Z,24.02
2019-05-01T10:24:54.712Z,26.55
2019-05-01T10:27:30.806Z,21.02
2019-05-01T10:30:07.756Z,22.95
2019-05-01T10:32:43.317Z,19.27
2019-05-01T10:35:41.755Z,20.92
2019-05-01T10:38:08.879Z,21.30
2019-05-01T10:40:37.642Z,23.22
2019-05-01T10:43:09.101Z,26.23
2019-05-01T10:45:40.459Z,19.52
2019-05-01T10:48:11.804Z,26.15
2019-05-01T10:50:43.153Z,21.27
2019-05-01T10:53:14.411Z,21.87
2019-05-01T10:55:45.655Z,26.23
2019-05-01T10:58:20.167Z,17.98
2019-05-01T11:00:51.534Z,18.40
2019-05-01T11:03:22.735Z,18.27
2019-05-01T11:05:56.060Z,20.00
2019-05-01T11:08:26.923Z,18.57
2019-05-01T11:10:57.861Z,22.30
2019-05-01T11:13:29.119Z,17.75
2019-05-01T11:16:01.093Z,25.32
2019-05-01T11:18:33.563Z,25.65
2019-05-01T11:21:04.603Z,21.17
2019-05-01T11:23:35.847Z,20.90
2019-05-01T11:26:07.345Z,20.48
2019-05-01T11:28:38.592Z,19.27
2019-05-01T11:31:11.674Z,18.25
2019-05-01T11:33:59.909Z,21.70
2019-05-01T11:36:41.748Z,21.97
2019-05-01T11:39:17.337Z,23.45
2019-05-01T11:42:05.289Z,23.83
2019-05-01T11:44:36.589Z,19.32
2019-05-01T11:47:07.891Z,19.15
2019-05-01T11:49:39.233Z,12.63
2019-05-01T11:52:10.487Z,18.20
2019-05-01T11:54:41.950Z,18.85
2019-05-01T11:57:13.224Z,15.20
2019-05-01T11:59:44.494Z,27.35
2019-05-01T12:02:15.827Z,14.95
2019-05-01T12:04:47.089Z,19.23
2019-05-01T12:07:18.266Z,17.45
2019-05-01T12:09:49.432Z,21.90
2019-05-01T12:12:22.302Z,23.52
2019-05-01T12:14:53.620Z,15.23
2019-05-01T12:17:26.526Z,13.43
2019-05-01T12:19:57.696Z,18.57
2019-05-01T12:22:28.999Z,14.35
2019-05-01T12:25:00.320Z,14.38
2019-05-01T12:27:31.527Z,20.90
2019-05-01T12:30:07.566Z,13.38
2019-05-01T12:32:38.571Z,16.70
2019-05-01T12:35:09.761Z,16.27
2019-05-01T12:37:42.098Z,17.17
2019-05-01T12:40:15.827Z,10.72
2019-05-01T12:42:47.060Z,20.30
2019-05-01T12:45:20.130Z,16.82
2019-05-01T12:47:53.048Z,12.45
2019-05-01T12:50:24.607Z,13.03
2019-05-01T12:53:00.380Z,9.73
2019-05-01T12:55:33.001Z,13.53
2019-05-01T12:58:04.494Z,23.87
2019-05-01T13:00:44.141Z,40.43
2019-05-01T13:03:15.794Z,11.05
2019-05-01T13:05:46.942Z,16.37
2019-05-01T13:08:18.377Z,15.13
2019-05-01T13:10:52.139Z,19.98
2019-05-01T13:13:23.350Z,18.93
2019-05-01T13:15:54.608Z,12.43
2019-05-01T13:18:26.161Z,14.85
2019-05-01T13:20:57.514Z,15.50
2019-05-01T13:23:28.716Z,17.95
2019-05-01T13:26:01.610Z,22.58
2019-05-01T13:28:50.888Z,8.23
2019-05-01T13:31:23.790Z,12.98
2019-05-01T13:33:55.259Z,18.37
2019-05-01T13:36:26.925Z,19.65
2019-05-01T13:38:58.104Z,12.18
2019-05-01T13:41:29.313Z,12.78
2019-05-01T13:44:01.692Z,15.83
2019-05-01T13:46:32.941Z,17.70
2019-05-01T13:49:04.243Z,10.75
2019-05-01T13:51:35.531Z,17.17
2019-05-01T13:54:07.720Z,11.55
2019-05-01T13:56:40.721Z,23.77
2019-05-01T13:59:15.432Z,8.38
2019-05-01T14:01:46.785Z,11.53
2019-05-01T14:04:21.593Z,11.18
2019-05-01T14:06:52.608Z,13.62
2019-05-01T14:09:27.600Z,10.78
2019-05-01T14:11:58.642Z,11.57
2019-05-01T14:14:29.580Z,11.95
2019-05-01T14:17:00.873Z,12.73
2019-05-01T14:19:32.982Z,8.00
2019-05-01T14:22:18.183Z,7.75
2019-05-01T14:24:51.314Z,13.70
2019-05-01T14:27:22.513Z,10.80
2019-05-01T14:29:53.710Z,8.68
2019-05-01T14:32:25.025Z,15.65
2019-05-01T14:34:56.057Z,10.18
2019-05-01T14:37:29.806Z,17.52
2019-05-01T14:40:00.371Z,11.48
2019-05-01T14:42:33.709Z,8.35
2019-05-01T14:45:07.728Z,14.33
2019-05-01T14:47:41.224Z,12.58
2019-05-01T14:50:12.348Z,13.70
2019-05-01T14:52:43.630Z,11.60
2019-05-01T14:55:14.984Z,10.48
2019-05-01T14:57:47.973Z,6.37
2019-05-01T15:00:19.776Z,7.60
2019-05-01T15:02:52.516Z,8.13
2019-05-01T15:05:23.440Z,7.97
2019-05-01T15:07:54.475Z,4.92
2019-05-01T15:10:25.570Z,4.50
2019-05-01T15:12:58.535Z,8.45
2019-05-01T15:15:48.046Z,5.50
2019-05-01T15:18:21.136Z,7.22
2019-05-01T15:20:53.584Z,9.88
2019-05-01T15:23:24.866Z,12.28
2019-05-01T15:25:58.438Z,6.55
2019-05-01T15:28:31.520Z,11.73
2019-05-01T15:31:02.999Z,12.50
2019-05-01T15:33:34.298Z,12.73
2019-05-01T15:36:05.572Z,17.07
2019-05-01T15:38:36.919Z,14.40
2019-05-01T15:41:10.625Z,14.90
2019-05-01T15:44:00.209Z,10.48
2019-05-01T15:46:31.654Z,13.68
2019-05-01T15:49:03.006Z,13.62
2019-05-01T15:51:34.406Z,9.38
2019-05-01T15:54:05.594Z,8.55
2019-05-01T15:56:37.368Z,8.95
2019-05-01T15:59:08.408Z,10.65
2019-05-01T16:01:40.065Z,19.42
2019-05-01T16:04:13.675Z,10.95
2019-05-01T16:06:44.819Z,16.85
2019-05-01T16:09:18.946Z,8.48
2019-05-01T16:12:08.153Z,9.80
2019-05-01T16:14:40.551Z,14.73
2019-05-01T16:17:11.831Z,8.78
2019-05-01T16:19:43.296Z,11.12
2019-05-01T16:22:14.661Z,11.38
2019-05-01T16:24:45.988Z,12.78
2019-05-01T16:27:17.386Z,9.03
2019-05-01T16:29:48.792Z,11.97
2019-05-01T16:32:19.834Z,8.55
2019-05-01T16:34:51.139Z,15.72
2019-05-01T16:37:22.437Z,11.25
2019-05-01T16:40:04.239Z,14.93
2019-05-01T16:42:35.954Z,9.68
2019-05-01T16:45:07.182Z,11.93
2019-05-01T16:47:38.397Z,13.22
2019-05-01T16:50:11.093Z,18.98
2019-05-01T16:52:43.864Z,11.63
2019-05-01T16:55:15.422Z,13.88
2019-05-01T16:57:46.577Z,12.20
2019-05-01T17:00:19.672Z,10.03
2019-05-01T17:02:55.722Z,10.08
2019-05-01T17:05:40.481Z,12.55
2019-05-01T17:08:13.429Z,11.30
2019-05-01T17:10:49.265Z,9.93
2019-05-01T17:13:21.578Z,11.65
2019-05-01T17:15:52.734Z,8.25
2019-05-01T17:18:24.000Z,11.88
2019-05-01T17:20:55.267Z,14.53
2019-05-01T17:23:26.315Z,8.75
2019-05-01T17:25:59.243Z,12.20
2019-05-01T17:28:32.851Z,13.00
2019-05-01T17:31:04.550Z,11.03
2019-05-01T17:33:35.794Z,11.90
2019-05-01T17:36:07.244Z,11.12
2019-05-01T17:38:49.042Z,9.90
2019-05-01T17:41:11.681Z,11.70
2019-05-01T17:43:44.758Z,7.95
2019-05-01T17:46:16.332Z,8.28
2019-05-01T17:48:47.596Z,9.83
2019-05-01T17:51:20.033Z,10.40
2019-05-01T17:53:51.210Z,11.75
2019-05-01T17:56:28.163Z,10.20
2019-05-01T17:58:55.593Z,16.42
2019-05-01T18:01:44.815Z,8.03
2019-05-01T18:04:19.761Z,7.03
2019-05-01T18:06:51.815Z,10.35
2019-05-01T18:09:22.969Z,10.35
2019-05-01T18:11:54.167Z,6.17
2019-05-01T18:14:25.117Z,11.20
2019-05-01T18:16:56.342Z,11.83
2019-05-01T18:19:27.833Z,10.32
2019-05-01T18:22:03.227Z,7.75
2019-05-01T18:24:47.630Z,10.08
2019-05-01T18:27:36.325Z,11.27
2019-05-01T18:30:09.211Z,6.85
2019-05-01T18:32:46.990Z,14.40
2019-05-01T18:35:16.284Z,11.55
2019-05-01T18:37:49.143Z,9.93
2019-05-01T18:40:24.944Z,8.23
2019-05-01T18:42:56.298Z,9.98
2019-05-01T18:45:47.514Z,3.45
2019-05-01T18:48:19.219Z,11.08
2019-05-01T18:50:54.602Z,5.25
2019-05-01T18:53:23.705Z,6.95
2019-05-01T18:55:54.861Z,7.55
2019-05-01T18:58:26.198Z,7.17
2019-05-01T19:00:57.560Z,5.90
2019-05-01T19:03:30.026Z,8.10
2019-05-01T19:06:01.477Z,11.30
2019-05-01T19:08:32.845Z,5.45
2019-05-01T19:11:12.921Z,4.97
2019-05-01T19:13:41.670Z,7.47
2019-05-01T19:16:15.153Z,2.60
2019-05-01T19:18:50.705Z,5.97
2019-05-01T19:21:24.504Z,6.62
2019-05-01T19:24:00.505Z,3.92
2019-05-01T19:26:33.544Z,6.10
2019-05-01T19:29:06.874Z,5.92
2019-05-01T19:31:40.639Z,3.62
2019-05-01T19:34:14.187Z,8.78
2019-05-01T19:36:47.307Z,10.05
2019-05-01T19:39:20.562Z,9.20
2019-05-01T19:41:54.658Z,5.37
2019-05-01T19:44:27.910Z,5.90
2019-05-01T19:47:01.429Z,15.72
2019-05-01T19:49:34.889Z,7.28
2019-05-01T19:52:08.485Z,6.12
2019-05-01T19:54:41.882Z,7.72
2019-05-01T19:57:15.275Z,8.65
2019-05-01T19:59:49.025Z,11.57
2019-05-01T20:02:24.103Z,6.63
2019-05-01T20:04:58.202Z,5.83
2019-05-01T20:07:31.438Z,11.95
2019-05-01T20:10:06.130Z,12.13
2019-05-01T20:12:39.471Z,11.38
2019-05-01T20:15:12.783Z,10.30
2019-05-01T20:17:45.976Z,5.65
2019-05-01T20:20:19.148Z,7.15
2019-05-01T20:22:55.326Z,8.38
2019-05-01T20:25:29.456Z,13.72
2019-05-01T20:28:03.050Z,16.40
2019-05-01T20:30:36.622Z,7.85
2019-05-01T20:33:09.506Z,6.60
2019-05-01T20:35:42.641Z,6.87
2019-05-01T20:38:16.349Z,10.73
2019-05-01T20:40:49.551Z,11.73
2019-05-01T20:43:22.404Z,9.80
2019-05-01T20:45:53.993Z,14.23
2019-05-01T20:48:25.590Z,15.98
2019-05-01T20:50:56.844Z,9.90
2019-05-01T20:53:27.989Z,7.85
2019-05-01T20:56:00.683Z,8.58
2019-05-01T20:58:31.796Z,18.30
2019-05-01T21:01:03.898Z,12.03
2019-05-01T21:03:36.599Z,10.82
2019-05-01T21:06:21.253Z,8.55
2019-05-01T21:09:00.590Z,8.60
2019-05-01T21:11:42.226Z,4.60
2019-05-01T21:14:21.793Z,4.25
2019-05-01T21:16:45.406Z,7.08
2019-05-01T21:19:16.965Z,10.90
2019-05-01T21:21:48.413Z,7.08
2019-05-01T21:24:19.878Z,4.75
2019-05-01T21:26:51.059Z,2.58
2019-05-01T21:29:24.086Z,3.45
2019-05-01T21:31:56.125Z,5.50
2019-05-01T21:34:27.847Z,6.10
2019-05-01T21:36:59.138Z,4.47
2019-05-01T21:39:30.549Z,5.22
2019-05-01T21:42:04.748Z,5.17
2019-05-01T21:44:35.922Z,3.55
2019-05-01T21:47:07.267Z,3.65
2019-05-01T21:49:38.308Z,3.75
2019-05-01T21:52:09.213Z,4.65
2019-05-01T21:54:40.396Z,7.58
2019-05-01T21:57:16.699Z,3.47
2019-05-01T21:59:47.976Z,7.62
2019-05-01T22:02:17.738Z,4.20
2019-05-01T22:04:48.974Z,2.72
2019-05-01T22:07:23.895Z,7.00
2019-05-01T22:09:53.216Z,2.12
2019-05-01T22:12:24.521Z,6.58
2019-05-01T22:14:57.561Z,4.70
2019-05-01T22:17:32.076Z,3.20
2019-05-01T22:20:03.338Z,3.80
2019-05-01T22:22:38.697Z,5.12
2019-05-01T22:25:26.420Z,5.25
2019-05-01T22:27:59.410Z,3.42
2019-05-01T22:30:34.965Z,5.90
2019-05-01T22:33:05.965Z,4.75
2019-05-01T22:35:38.837Z,7.22
2019-05-01T22:38:10.143Z,3.30
2019-05-01T22:41:06.780Z,4.37
2019-05-01T22:43:33.419Z,3.55
2019-05-01T22:46:06.307Z,6.53
2019-05-01T22:48:37.251Z,6.03
2019-05-01T22:51:10.052Z,5.42
2019-05-01T22:53:41.397Z,8.10
2019-05-01T22:56:12.741Z,2.58
2019-05-01T22:58:43.993Z,4.67
2019-05-01T23:01:18.127Z,4.60
2019-05-01T23:03:49.974Z,6.25
2019-05-01T23:06:21.335Z,5.30
2019-05-01T23:08:52.679Z,4.53
2019-05-01T23:11:26.285Z,5.55
2019-05-01T23:13:57.738Z,5.75
2019-05-01T23:16:30.734Z,4.15
2019-05-01T23:19:01.670Z,6.83
2019-05-01T23:21:32.575Z,3.87
2019-05-01T23:24:03.984Z,7.33
2019-05-01T23:26:35.327Z,3.83
2019-05-01T23:29:06.568Z,5.87
2019-05-01T23:31:37.823Z,3.95
2019-05-01T23:34:08.864Z,4.95
2019-05-01T23:36:40.125Z,4.92
2019-05-01T23:39:12.981Z,4.90
2019-05-01T23:41:46.797Z,7.65
2019-05-01T23:44:17.146Z,4.78
2019-05-01T23:46:48.341Z,5.55
2019-05-01T23:49:19.574Z,4.15
2019-05-01T23:51:50.843Z,6.22
2019-05-01T23:54:22.105Z,5.45
2019-05-01T23:56:53.391Z,5.50
2019-05-01T23:59:24.538Z,6.53
